sensor_id;sensor_type;location;lat;lon;timestamp;P1;durP1;ratioP1;P2;durP2;ratioP2
36291;SDS011;22327;51.208;6.418;2024-02-04T00:01:13;12.07;;;6.28;;
36291;SDS011;22327;51.208;6.418;2024-02-04T00:04:13;13.02;;;6.93;;
36291;SDS011;22327;51.208;6.418;2024-02-04T00:07:14;17.52;;;8.32;;
36291;SDS011;22327;51.208;6.418;2024-02-04T00:10:14;18.58;;;8.73;;
36291;SDS011;22327;51.208;6.418;2024-02-04T00:13:18;15.02;;;7.45;;
36291;SDS011;22327;51.208;6.418;2024-02-04T00:16:19;15.48;;;7.75;;
36291;SDS011;22327;51.208;6.418;2024-02-04T00:19:19;19.80;;;9.00;;
36291;SDS011;22327;51.208;6.418;2024-02-04T00:22:20;17.08;;;8.30;;
36291;SDS011;22327;51.208;6.418;2024-02-04T00:25:20;13.60;;;7.32;;
36291;SDS011;22327;51.208;6.418;2024-02-04T00:28:21;15.23;;;7.50;;
36291;SDS011;22327;51.208;6.418;2024-02-04T00:31:21;13.70;;;6.70;;
36291;SDS011;22327;51.208;6.418;2024-02-04T00:34:22;16.85;;;7.20;;
36291;SDS011;22327;51.208;6.418;2024-02-04T00:37:22;14.88;;;7.28;;
36291;SDS011;22327;51.208;6.418;2024-02-04T00:40:23;12.43;;;6.88;;
36291;SDS011;22327;51.208;6.418;2024-02-04T00:43:23;12.82;;;6.82;;
36291;SDS011;22327;51.208;6.418;2024-02-04T00:46:24;11.85;;;6.57;;
36291;SDS011;22327;51.208;6.418;2024-02-04T00:49:24;11.90;;;5.80;;
36291;SDS011;22327;51.208;6.418;2024-02-04T00:52:26;10.18;;;5.63;;
36291;SDS011;22327;51.208;6.418;2024-02-04T00:55:27;11.80;;;6.30;;
36291;SDS011;22327;51.208;6.418;2024-02-04T00:58:27;9.77;;;4.97;;
36291;SDS011;22327;51.208;6.418;2024-02-04T01:01:28;11.23;;;6.00;;
36291;SDS011;22327;51.208;6.418;2024-02-04T01:04:28;11.40;;;6.05;;
36291;SDS011;22327;51.208;6.418;2024-02-04T01:07:29;9.15;;;5.32;;
36291;SDS011;22327;51.208;6.418;2024-02-04T01:10:29;10.30;;;5.43;;
36291;SDS011;22327;51.208;6.418;2024-02-04T01:13:30;9.57;;;5.05;;
36291;SDS011;22327;51.208;6.418;2024-02-04T01:16:30;7.95;;;4.30;;
36291;SDS011;22327;51.208;6.418;2024-02-04T01:19:31;8.25;;;4.57;;
36291;SDS011;22327;51.208;6.418;2024-02-04T01:22:31;7.93;;;4.20;;
36291;SDS011;22327;51.208;6.418;2024-02-04T01:25:32;8.82;;;4.20;;
36291;SDS011;22327;51.208;6.418;2024-02-04T01:28:32;5.70;;;3.83;;
36291;SDS011;22327;51.208;6.418;2024-02-04T01:31:33;7.60;;;4.07;;
36291;SDS011;22327;51.208;6.418;2024-02-04T01:34:33;8.27;;;4.72;;
36291;SDS011;22327;51.208;6.418;2024-02-04T01:37:34;10.38;;;4.25;;
36291;SDS011;22327;51.208;6.418;2024-02-04T01:40:34;8.13;;;4.65;;
36291;SDS011;22327;51.208;6.418;2024-02-04T01:43:35;9.73;;;4.82;;
36291;SDS011;22327;51.208;6.418;2024-02-04T01:46:36;8.30;;;4.75;;
36291;SDS011;22327;51.208;6.418;2024-02-04T01:49:37;9.90;;;4.90;;
36291;SDS011;22327;51.208;6.418;2024-02-04T01:52:37;8.52;;;4.60;;
36291;SDS011;22327;51.208;6.418;2024-02-04T01:55:41;10.23;;;4.97;;
36291;SDS011;22327;51.208;6.418;2024-02-04T01:58:42;10.32;;;5.20;;
36291;SDS011;22327;51.208;6.418;2024-02-04T02:01:46;7.80;;;4.35;;
36291;SDS011;22327;51.208;6.418;2024-02-04T02:04:47;10.20;;;5.00;;
36291;SDS011;22327;51.208;6.418;2024-02-04T02:07:48;8.43;;;4.78;;
36291;SDS011;22327;51.208;6.418;2024-02-04T02:10:51;9.45;;;5.07;;
36291;SDS011;22327;51.208;6.418;2024-02-04T02:14:02;9.75;;;5.40;;
36291;SDS011;22327;51.208;6.418;2024-02-04T02:17:06;8.82;;;4.88;;
36291;SDS011;22327;51.208;6.418;2024-02-04T02:20:19;10.10;;;5.28;;
36291;SDS011;22327;51.208;6.418;2024-02-04T02:23:30;11.13;;;5.50;;
36291;SDS011;22327;51.208;6.418;2024-02-04T02:26:33;12.85;;;5.72;;
36291;SDS011;22327;51.208;6.418;2024-02-04T02:29:38;13.25;;;5.93;;
36291;SDS011;22327;51.208;6.418;2024-02-04T02:32:38;14.35;;;6.10;;
36291;SDS011;22327;51.208;6.418;2024-02-04T02:35:39;12.40;;;5.38;;
36291;SDS011;22327;51.208;6.418;2024-02-04T02:38:44;14.25;;;5.88;;
36291;SDS011;22327;51.208;6.418;2024-02-04T02:42:05;11.13;;;5.82;;
36291;SDS011;22327;51.208;6.418;2024-02-04T02:45:07;11.20;;;5.95;;
36291;SDS011;22327;51.208;6.418;2024-02-04T02:48:08;11.60;;;5.85;;
36291;SDS011;22327;51.208;6.418;2024-02-04T02:51:10;11.73;;;5.32;;
36291;SDS011;22327;51.208;6.418;2024-02-04T02:54:11;11.90;;;6.22;;
36291;SDS011;22327;51.208;6.418;2024-02-04T02:57:12;11.40;;;5.05;;
36291;SDS011;22327;51.208;6.418;2024-02-04T03:00:12;12.18;;;5.57;;
36291;SDS011;22327;51.208;6.418;2024-02-04T03:03:13;9.35;;;4.72;;
36291;SDS011;22327;51.208;6.418;2024-02-04T03:06:14;10.02;;;4.88;;
36291;SDS011;22327;51.208;6.418;2024-02-04T03:09:14;7.97;;;4.53;;
36291;SDS011;22327;51.208;6.418;2024-02-04T03:12:15;13.02;;;5.70;;
36291;SDS011;22327;51.208;6.418;2024-02-04T03:15:15;11.00;;;5.22;;
36291;SDS011;22327;51.208;6.418;2024-02-04T03:18:16;12.50;;;5.70;;
36291;SDS011;22327;51.208;6.418;2024-02-04T03:21:17;16.33;;;6.03;;
36291;SDS011;22327;51.208;6.418;2024-02-04T03:24:20;15.65;;;6.88;;
36291;SDS011;22327;51.208;6.418;2024-02-04T03:27:21;14.43;;;7.05;;
36291;SDS011;22327;51.208;6.418;2024-02-04T03:30:21;19.00;;;8.48;;
36291;SDS011;22327;51.208;6.418;2024-02-04T03:33:22;18.52;;;9.40;;
36291;SDS011;22327;51.208;6.418;2024-02-04T03:36:23;20.85;;;9.50;;
36291;SDS011;22327;51.208;6.418;2024-02-04T03:39:24;19.55;;;10.07;;
36291;SDS011;22327;51.208;6.418;2024-02-04T03:42:25;24.80;;;10.98;;
36291;SDS011;22327;51.208;6.418;2024-02-04T03:45:25;21.20;;;9.68;;
36291;SDS011;22327;51.208;6.418;2024-02-04T03:48:26;25.58;;;12.38;;
36291;SDS011;22327;51.208;6.418;2024-02-04T03:51:26;26.52;;;11.55;;
36291;SDS011;22327;51.208;6.418;2024-02-04T03:54:27;23.95;;;11.13;;
36291;SDS011;22327;51.208;6.418;2024-02-04T03:57:27;24.33;;;11.20;;
36291;SDS011;22327;51.208;6.418;2024-02-04T04:00:28;26.38;;;11.18;;
36291;SDS011;22327;51.208;6.418;2024-02-04T04:03:28;26.70;;;11.02;;
36291;SDS011;22327;51.208;6.418;2024-02-04T04:06:29;28.35;;;10.70;;
36291;SDS011;22327;51.208;6.418;2024-02-04T04:09:29;21.73;;;10.60;;
36291;SDS011;22327;51.208;6.418;2024-02-04T04:12:30;24.17;;;10.65;;
36291;SDS011;22327;51.208;6.418;2024-02-04T04:15:30;26.52;;;11.52;;
36291;SDS011;22327;51.208;6.418;2024-02-04T04:18:31;29.38;;;11.63;;
36291;SDS011;22327;51.208;6.418;2024-02-04T04:21:31;28.02;;;12.93;;
36291;SDS011;22327;51.208;6.418;2024-02-04T04:24:32;30.73;;;13.02;;
36291;SDS011;22327;51.208;6.418;2024-02-04T04:27:32;30.48;;;14.73;;
36291;SDS011;22327;51.208;6.418;2024-02-04T04:30:33;29.17;;;12.38;;
36291;SDS011;22327;51.208;6.418;2024-02-04T04:33:33;31.20;;;14.02;;
36291;SDS011;22327;51.208;6.418;2024-02-04T04:36:35;30.05;;;12.90;;
36291;SDS011;22327;51.208;6.418;2024-02-04T04:39:36;26.83;;;12.93;;
36291;SDS011;22327;51.208;6.418;2024-02-04T04:42:36;29.27;;;13.57;;
36291;SDS011;22327;51.208;6.418;2024-02-04T04:45:37;29.50;;;12.70;;
36291;SDS011;22327;51.208;6.418;2024-02-04T04:48:37;27.88;;;12.50;;
36291;SDS011;22327;51.208;6.418;2024-02-04T04:51:38;27.98;;;13.27;;
36291;SDS011;22327;51.208;6.418;2024-02-04T04:54:38;29.83;;;13.43;;
36291;SDS011;22327;51.208;6.418;2024-02-04T04:57:39;32.08;;;13.88;;
36291;SDS011;22327;51.208;6.418;2024-02-04T05:00:39;30.77;;;13.63;;
36291;SDS011;22327;51.208;6.418;2024-02-04T05:03:40;29.83;;;13.45;;
36291;SDS011;22327;51.208;6.418;2024-02-04T05:06:40;33.95;;;14.18;;
36291;SDS011;22327;51.208;6.418;2024-02-04T05:09:41;31.00;;;14.18;;
36291;SDS011;22327;51.208;6.418;2024-02-04T05:12:42;29.88;;;14.35;;
36291;SDS011;22327;51.208;6.418;2024-02-04T05:15:42;31.38;;;12.85;;
36291;SDS011;22327;51.208;6.418;2024-02-04T05:18:43;32.08;;;13.57;;
36291;SDS011;22327;51.208;6.418;2024-02-04T05:21:43;33.42;;;14.00;;
36291;SDS011;22327;51.208;6.418;2024-02-04T05:24:44;26.98;;;12.18;;
36291;SDS011;22327;51.208;6.418;2024-02-04T05:27:44;29.45;;;13.38;;
36291;SDS011;22327;51.208;6.418;2024-02-04T05:30:45;31.67;;;13.98;;
36291;SDS011;22327;51.208;6.418;2024-02-04T05:33:46;26.23;;;12.15;;
36291;SDS011;22327;51.208;6.418;2024-02-04T05:36:46;29.63;;;12.15;;
36291;SDS011;22327;51.208;6.418;2024-02-04T05:39:47;30.33;;;11.88;;
36291;SDS011;22327;51.208;6.418;2024-02-04T05:42:47;29.17;;;12.60;;
36291;SDS011;22327;51.208;6.418;2024-02-04T05:45:48;31.13;;;13.00;;
36291;SDS011;22327;51.208;6.418;2024-02-04T05:48:48;28.67;;;12.00;;
36291;SDS011;22327;51.208;6.418;2024-02-04T05:51:49;27.30;;;11.80;;
36291;SDS011;22327;51.208;6.418;2024-02-04T05:54:50;25.55;;;10.98;;
36291;SDS011;22327;51.208;6.418;2024-02-04T05:57:50;26.52;;;12.02;;
36291;SDS011;22327;51.208;6.418;2024-02-04T06:00:51;26.02;;;11.10;;
36291;SDS011;22327;51.208;6.418;2024-02-04T06:03:51;24.83;;;11.70;;
36291;SDS011;22327;51.208;6.418;2024-02-04T06:06:52;27.70;;;10.57;;
36291;SDS011;22327;51.208;6.418;2024-02-04T06:09:52;26.13;;;10.50;;
36291;SDS011;22327;51.208;6.418;2024-02-04T06:12:55;19.13;;;9.20;;
36291;SDS011;22327;51.208;6.418;2024-02-04T06:15:56;25.73;;;10.65;;
36291;SDS011;22327;51.208;6.418;2024-02-04T06:18:56;21.95;;;10.00;;
36291;SDS011;22327;51.208;6.418;2024-02-04T06:21:58;23.80;;;10.18;;
36291;SDS011;22327;51.208;6.418;2024-02-04T06:24:58;25.35;;;10.32;;
36291;SDS011;22327;51.208;6.418;2024-02-04T06:27:59;18.67;;;9.13;;
36291;SDS011;22327;51.208;6.418;2024-02-04T06:30:59;19.02;;;9.00;;
36291;SDS011;22327;51.208;6.418;2024-02-04T06:34:00;20.02;;;8.93;;
36291;SDS011;22327;51.208;6.418;2024-02-04T06:37:01;16.83;;;7.68;;
36291;SDS011;22327;51.208;6.418;2024-02-04T06:40:01;13.52;;;7.28;;
36291;SDS011;22327;51.208;6.418;2024-02-04T06:43:02;17.20;;;8.10;;
36291;SDS011;22327;51.208;6.418;2024-02-04T06:46:03;15.10;;;7.32;;
36291;SDS011;22327;51.208;6.418;2024-02-04T06:49:04;13.93;;;6.57;;
36291;SDS011;22327;51.208;6.418;2024-02-04T06:52:04;13.02;;;6.78;;
36291;SDS011;22327;51.208;6.418;2024-02-04T06:55:05;13.13;;;5.85;;
36291;SDS011;22327;51.208;6.418;2024-02-04T06:58:06;13.57;;;5.65;;
36291;SDS011;22327;51.208;6.418;2024-02-04T07:01:06;12.23;;;5.50;;
36291;SDS011;22327;51.208;6.418;2024-02-04T07:04:07;11.27;;;5.15;;
36291;SDS011;22327;51.208;6.418;2024-02-04T07:07:07;10.52;;;4.90;;
36291;SDS011;22327;51.208;6.418;2024-02-04T07:10:08;13.00;;;4.78;;
36291;SDS011;22327;51.208;6.418;2024-02-04T07:13:08;11.13;;;4.78;;
36291;SDS011;22327;51.208;6.418;2024-02-04T07:16:11;9.07;;;3.90;;
36291;SDS011;22327;51.208;6.418;2024-02-04T07:19:12;8.73;;;3.88;;
36291;SDS011;22327;51.208;6.418;2024-02-04T07:22:12;9.35;;;4.13;;
36291;SDS011;22327;51.208;6.418;2024-02-04T07:25:13;8.13;;;3.92;;
36291;SDS011;22327;51.208;6.418;2024-02-04T07:28:14;10.48;;;4.35;;
36291;SDS011;22327;51.208;6.418;2024-02-04T07:31:14;9.52;;;4.40;;
36291;SDS011;22327;51.208;6.418;2024-02-04T07:34:15;11.40;;;5.43;;
36291;SDS011;22327;51.208;6.418;2024-02-04T07:37:15;9.32;;;4.65;;
36291;SDS011;22327;51.208;6.418;2024-02-04T07:40:17;11.50;;;4.43;;
36291;SDS011;22327;51.208;6.418;2024-02-04T07:43:18;9.10;;;4.70;;
36291;SDS011;22327;51.208;6.418;2024-02-04T07:46:19;9.80;;;4.28;;
36291;SDS011;22327;51.208;6.418;2024-02-04T07:49:20;10.27;;;5.00;;
36291;SDS011;22327;51.208;6.418;2024-02-04T07:52:20;11.90;;;5.75;;
36291;SDS011;22327;51.208;6.418;2024-02-04T07:55:21;11.13;;;4.90;;
36291;SDS011;22327;51.208;6.418;2024-02-04T07:58:21;10.20;;;4.70;;
36291;SDS011;22327;51.208;6.418;2024-02-04T08:01:22;12.02;;;4.93;;
36291;SDS011;22327;51.208;6.418;2024-02-04T08:04:23;11.82;;;4.50;;
36291;SDS011;22327;51.208;6.418;2024-02-04T08:07:24;9.40;;;4.70;;
36291;SDS011;22327;51.208;6.418;2024-02-04T08:10:24;8.85;;;3.85;;
36291;SDS011;22327;51.208;6.418;2024-02-04T08:13:25;7.65;;;3.58;;
36291;SDS011;22327;51.208;6.418;2024-02-04T08:16:25;8.15;;;3.92;;
36291;SDS011;22327;51.208;6.418;2024-02-04T08:19:26;9.35;;;3.95;;
36291;SDS011;22327;51.208;6.418;2024-02-04T08:22:26;8.38;;;4.93;;
36291;SDS011;22327;51.208;6.418;2024-02-04T08:25:27;9.68;;;5.40;;
36291;SDS011;22327;51.208;6.418;2024-02-04T08:28:27;10.07;;;5.30;;
36291;SDS011;22327;51.208;6.418;2024-02-04T08:31:30;11.10;;;5.22;;
36291;SDS011;22327;51.208;6.418;2024-02-04T08:34:32;10.20;;;5.00;;
36291;SDS011;22327;51.208;6.418;2024-02-04T08:37:32;11.90;;;5.43;;
36291;SDS011;22327;51.208;6.418;2024-02-04T08:40:35;11.25;;;5.70;;
36291;SDS011;22327;51.208;6.418;2024-02-04T08:43:36;10.40;;;5.10;;
36291;SDS011;22327;51.208;6.418;2024-02-04T08:46:36;10.32;;;4.50;;
36291;SDS011;22327;51.208;6.418;2024-02-04T08:49:37;9.70;;;5.35;;
36291;SDS011;22327;51.208;6.418;2024-02-04T08:52:37;9.50;;;4.88;;
36291;SDS011;22327;51.208;6.418;2024-02-04T08:55:38;11.30;;;4.78;;
36291;SDS011;22327;51.208;6.418;2024-02-04T08:58:38;9.57;;;5.10;;
36291;SDS011;22327;51.208;6.418;2024-02-04T09:01:39;11.80;;;5.28;;
36291;SDS011;22327;51.208;6.418;2024-02-04T09:04:39;10.60;;;5.20;;
36291;SDS011;22327;51.208;6.418;2024-02-04T09:07:40;10.02;;;5.10;;
36291;SDS011;22327;51.208;6.418;2024-02-04T09:10:41;8.45;;;4.22;;
36291;SDS011;22327;51.208;6.418;2024-02-04T09:13:41;8.55;;;4.20;;
36291;SDS011;22327;51.208;6.418;2024-02-04T09:16:42;8.05;;;4.68;;
36291;SDS011;22327;51.208;6.418;2024-02-04T09:19:42;7.85;;;4.40;;
36291;SDS011;22327;51.208;6.418;2024-02-04T09:22:43;6.90;;;3.88;;
36291;SDS011;22327;51.208;6.418;2024-02-04T09:25:43;8.35;;;4.35;;
36291;SDS011;22327;51.208;6.418;2024-02-04T09:28:44;6.95;;;3.83;;
36291;SDS011;22327;51.208;6.418;2024-02-04T09:31:44;9.85;;;4.07;;
36291;SDS011;22327;51.208;6.418;2024-02-04T09:34:45;8.13;;;3.80;;
36291;SDS011;22327;51.208;6.418;2024-02-04T09:37:45;6.35;;;3.80;;
36291;SDS011;22327;51.208;6.418;2024-02-04T09:40:46;7.80;;;3.80;;
36291;SDS011;22327;51.208;6.418;2024-02-04T09:43:47;8.30;;;4.32;;
36291;SDS011;22327;51.208;6.418;2024-02-04T09:46:49;8.25;;;3.80;;
36291;SDS011;22327;51.208;6.418;2024-02-04T09:49:49;9.00;;;4.28;;
36291;SDS011;22327;51.208;6.418;2024-02-04T09:52:53;8.48;;;4.03;;
36291;SDS011;22327;51.208;6.418;2024-02-04T09:55:58;8.05;;;4.38;;
36291;SDS011;22327;51.208;6.418;2024-02-04T09:59:01;7.95;;;4.15;;
36291;SDS011;22327;51.208;6.418;2024-02-04T10:02:03;6.82;;;4.50;;
36291;SDS011;22327;51.208;6.418;2024-02-04T10:05:03;9.25;;;4.07;;
36291;SDS011;22327;51.208;6.418;2024-02-04T10:08:04;8.82;;;3.60;;
36291;SDS011;22327;51.208;6.418;2024-02-04T10:11:05;8.38;;;4.20;;
36291;SDS011;22327;51.208;6.418;2024-02-04T10:14:06;10.82;;;5.40;;
36291;SDS011;22327;51.208;6.418;2024-02-04T10:17:06;8.57;;;4.50;;
36291;SDS011;22327;51.208;6.418;2024-02-04T10:20:09;12.45;;;4.90;;
36291;SDS011;22327;51.208;6.418;2024-02-04T10:23:10;9.55;;;4.70;;
36291;SDS011;22327;51.208;6.418;2024-02-04T10:26:10;9.07;;;4.30;;
36291;SDS011;22327;51.208;6.418;2024-02-04T10:29:11;9.95;;;5.10;;
36291;SDS011;22327;51.208;6.418;2024-02-04T10:32:11;9.05;;;5.15;;
36291;SDS011;22327;51.208;6.418;2024-02-04T10:35:13;10.38;;;4.57;;
36291;SDS011;22327;51.208;6.418;2024-02-04T10:38:13;10.63;;;5.20;;
36291;SDS011;22327;51.208;6.418;2024-02-04T10:41:14;12.77;;;5.60;;
36291;SDS011;22327;51.208;6.418;2024-02-04T10:44:16;9.30;;;5.07;;
36291;SDS011;22327;51.208;6.418;2024-02-04T10:47:19;8.40;;;4.45;;
36291;SDS011;22327;51.208;6.418;2024-02-04T10:50:23;9.43;;;5.68;;
36291;SDS011;22327;51.208;6.418;2024-02-04T10:53:26;8.82;;;4.15;;
36291;SDS011;22327;51.208;6.418;2024-02-04T10:56:30;12.90;;;5.05;;
36291;SDS011;22327;51.208;6.418;2024-02-04T10:59:41;9.68;;;4.90;;
36291;SDS011;22327;51.208;6.418;2024-02-04T11:02:43;11.98;;;5.65;;
36291;SDS011;22327;51.208;6.418;2024-02-04T11:05:46;7.93;;;4.65;;
36291;SDS011;22327;51.208;6.418;2024-02-04T11:08:47;10.27;;;4.90;;
36291;SDS011;22327;51.208;6.418;2024-02-04T11:11:48;9.65;;;5.10;;
36291;SDS011;22327;51.208;6.418;2024-02-04T11:14:51;8.32;;;4.55;;
36291;SDS011;22327;51.208;6.418;2024-02-04T11:18:12;9.23;;;4.20;;
36291;SDS011;22327;51.208;6.418;2024-02-04T11:24:54;8.98;;;4.72;;
36291;SDS011;22327;51.208;6.418;2024-02-04T11:28:05;7.20;;;4.15;;
36291;SDS011;22327;51.208;6.418;2024-02-04T11:31:13;9.38;;;4.07;;
36291;SDS011;22327;51.208;6.418;2024-02-04T11:34:19;6.63;;;3.70;;
36291;SDS011;22327;51.208;6.418;2024-02-04T11:37:20;7.60;;;4.00;;
36291;SDS011;22327;51.208;6.418;2024-02-04T11:40:21;11.25;;;4.20;;
36291;SDS011;22327;51.208;6.418;2024-02-04T11:43:23;8.38;;;4.45;;
36291;SDS011;22327;51.208;6.418;2024-02-04T11:46:27;6.18;;;3.80;;
36291;SDS011;22327;51.208;6.418;2024-02-04T11:49:30;7.90;;;4.05;;
36291;SDS011;22327;51.208;6.418;2024-02-04T11:52:30;7.53;;;3.95;;
36291;SDS011;22327;51.208;6.418;2024-02-04T11:55:31;7.47;;;4.10;;
36291;SDS011;22327;51.208;6.418;2024-02-04T11:58:31;8.07;;;4.22;;
36291;SDS011;22327;51.208;6.418;2024-02-04T12:01:32;6.47;;;3.90;;
36291;SDS011;22327;51.208;6.418;2024-02-04T12:04:36;7.70;;;4.03;;
36291;SDS011;22327;51.208;6.418;2024-02-04T12:07:38;10.82;;;4.00;;
36291;SDS011;22327;51.208;6.418;2024-02-04T12:10:40;5.75;;;3.25;;
36291;SDS011;22327;51.208;6.418;2024-02-04T12:13:42;4.60;;;3.22;;
36291;SDS011;22327;51.208;6.418;2024-02-04T12:16:44;5.63;;;3.38;;
36291;SDS011;22327;51.208;6.418;2024-02-04T12:19:45;7.05;;;4.03;;
36291;SDS011;22327;51.208;6.418;2024-02-04T12:22:45;7.22;;;3.58;;
36291;SDS011;22327;51.208;6.418;2024-02-04T12:25:46;5.45;;;3.40;;
36291;SDS011;22327;51.208;6.418;2024-02-04T12:28:47;7.38;;;3.47;;
36291;SDS011;22327;51.208;6.418;2024-02-04T12:31:48;6.78;;;3.40;;
36291;SDS011;22327;51.208;6.418;2024-02-04T12:35:01;5.72;;;3.22;;
36291;SDS011;22327;51.208;6.418;2024-02-04T12:38:03;6.00;;;2.88;;
36291;SDS011;22327;51.208;6.418;2024-02-04T12:41:04;5.75;;;3.55;;
36291;SDS011;22327;51.208;6.418;2024-02-04T12:44:05;7.25;;;3.60;;
36291;SDS011;22327;51.208;6.418;2024-02-04T12:47:05;6.63;;;3.53;;
36291;SDS011;22327;51.208;6.418;2024-02-04T12:50:06;5.95;;;3.45;;
36291;SDS011;22327;51.208;6.418;2024-02-04T12:53:08;6.20;;;3.55;;
36291;SDS011;22327;51.208;6.418;2024-02-04T12:56:11;6.88;;;3.67;;
36291;SDS011;22327;51.208;6.418;2024-02-04T12:59:22;5.80;;;3.65;;
36291;SDS011;22327;51.208;6.418;2024-02-04T13:02:32;6.07;;;3.20;;
36291;SDS011;22327;51.208;6.418;2024-02-04T13:05:34;5.47;;;3.60;;
36291;SDS011;22327;51.208;6.418;2024-02-04T13:08:36;7.10;;;4.22;;
36291;SDS011;22327;51.208;6.418;2024-02-04T13:11:36;6.88;;;3.40;;
36291;SDS011;22327;51.208;6.418;2024-02-04T13:14:37;4.78;;;3.45;;
36291;SDS011;22327;51.208;6.418;2024-02-04T13:17:38;9.40;;;4.47;;
36291;SDS011;22327;51.208;6.418;2024-02-04T13:20:39;7.40;;;3.67;;
36291;SDS011;22327;51.208;6.418;2024-02-04T13:23:40;6.03;;;3.65;;
36291;SDS011;22327;51.208;6.418;2024-02-04T13:26:41;6.38;;;3.72;;
36291;SDS011;22327;51.208;6.418;2024-02-04T13:29:41;6.85;;;4.10;;
36291;SDS011;22327;51.208;6.418;2024-02-04T13:32:42;9.50;;;4.72;;
36291;SDS011;22327;51.208;6.418;2024-02-04T13:35:43;6.03;;;4.40;;
36291;SDS011;22327;51.208;6.418;2024-02-04T13:38:45;8.18;;;4.22;;
36291;SDS011;22327;51.208;6.418;2024-02-04T13:41:45;7.53;;;3.97;;
36291;SDS011;22327;51.208;6.418;2024-02-04T13:44:47;6.00;;;3.83;;
36291;SDS011;22327;51.208;6.418;2024-02-04T13:47:47;9.77;;;4.32;;
36291;SDS011;22327;51.208;6.418;2024-02-04T13:50:48;8.82;;;4.72;;
36291;SDS011;22327;51.208;6.418;2024-02-04T13:53:48;7.72;;;4.25;;
36291;SDS011;22327;51.208;6.418;2024-02-04T13:56:49;6.53;;;4.07;;
36291;SDS011;22327;51.208;6.418;2024-02-04T13:59:49;9.75;;;3.90;;
36291;SDS011;22327;51.208;6.418;2024-02-04T14:02:50;7.53;;;3.58;;
36291;SDS011;22327;51.208;6.418;2024-02-04T14:05:51;5.93;;;3.50;;
36291;SDS011;22327;51.208;6.418;2024-02-04T14:08:52;4.65;;;3.42;;
36291;SDS011;22327;51.208;6.418;2024-02-04T14:11:53;6.22;;;3.15;;
36291;SDS011;22327;51.208;6.418;2024-02-04T14:14:56;5.35;;;3.42;;
36291;SDS011;22327;51.208;6.418;2024-02-04T14:17:57;3.97;;;3.15;;
36291;SDS011;22327;51.208;6.418;2024-02-04T14:20:59;4.13;;;2.60;;
36291;SDS011;22327;51.208;6.418;2024-02-04T14:23:59;4.07;;;2.70;;
36291;SDS011;22327;51.208;6.418;2024-02-04T14:27:00;5.05;;;2.92;;
36291;SDS011;22327;51.208;6.418;2024-02-04T14:30:00;5.57;;;2.53;;
36291;SDS011;22327;51.208;6.418;2024-02-04T14:33:01;4.93;;;2.25;;
36291;SDS011;22327;51.208;6.418;2024-02-04T14:36:03;3.17;;;2.15;;
36291;SDS011;22327;51.208;6.418;2024-02-04T14:39:04;4.88;;;2.92;;
36291;SDS011;22327;51.208;6.418;2024-02-04T14:42:05;3.67;;;2.20;;
36291;SDS011;22327;51.208;6.418;2024-02-04T14:45:06;5.85;;;3.90;;
36291;SDS011;22327;51.208;6.418;2024-02-04T14:48:07;3.10;;;1.40;;
36291;SDS011;22327;51.208;6.418;2024-02-04T14:51:08;3.78;;;2.00;;
36291;SDS011;22327;51.208;6.418;2024-02-04T14:54:08;2.95;;;1.70;;
36291;SDS011;22327;51.208;6.418;2024-02-04T14:57:09;4.05;;;1.67;;
36291;SDS011;22327;51.208;6.418;2024-02-04T15:00:09;5.25;;;2.00;;
36291;SDS011;22327;51.208;6.418;2024-02-04T15:03:10;2.83;;;1.77;;
36291;SDS011;22327;51.208;6.418;2024-02-04T15:06:11;4.20;;;2.08;;
36291;SDS011;22327;51.208;6.418;2024-02-04T15:09:11;3.22;;;1.80;;
36291;SDS011;22327;51.208;6.418;2024-02-04T15:12:12;5.68;;;2.00;;
36291;SDS011;22327;51.208;6.418;2024-02-04T15:15:14;4.72;;;2.08;;
36291;SDS011;22327;51.208;6.418;2024-02-04T15:18:15;2.20;;;2.00;;
36291;SDS011;22327;51.208;6.418;2024-02-04T15:21:16;3.58;;;2.05;;
36291;SDS011;22327;51.208;6.418;2024-02-04T15:24:17;1.85;;;1.58;;
36291;SDS011;22327;51.208;6.418;2024-02-04T15:27:18;4.75;;;2.80;;
36291;SDS011;22327;51.208;6.418;2024-02-04T15:30:19;2.55;;;1.85;;
36291;SDS011;22327;51.208;6.418;2024-02-04T15:33:20;5.63;;;2.40;;
36291;SDS011;22327;51.208;6.418;2024-02-04T15:36:21;4.40;;;2.45;;
36291;SDS011;22327;51.208;6.418;2024-02-04T15:39:22;4.47;;;1.90;;
36291;SDS011;22327;51.208;6.418;2024-02-04T15:42:22;4.20;;;1.92;;
36291;SDS011;22327;51.208;6.418;2024-02-04T15:45:23;4.82;;;2.10;;
36291;SDS011;22327;51.208;6.418;2024-02-04T15:48:23;3.83;;;1.75;;
36291;SDS011;22327;51.208;6.418;2024-02-04T15:51:27;4.05;;;2.97;;
36291;SDS011;22327;51.208;6.418;2024-02-04T15:54:28;3.15;;;2.10;;
36291;SDS011;22327;51.208;6.418;2024-02-04T15:57:31;2.05;;;1.83;;
36291;SDS011;22327;51.208;6.418;2024-02-04T16:00:35;3.63;;;2.17;;
36291;SDS011;22327;51.208;6.418;2024-02-04T16:03:35;5.72;;;2.83;;
36291;SDS011;22327;51.208;6.418;2024-02-04T16:06:37;5.30;;;2.35;;
36291;SDS011;22327;51.208;6.418;2024-02-04T16:09:38;2.20;;;2.00;;
36291;SDS011;22327;51.208;6.418;2024-02-04T16:12:40;1.83;;;1.73;;
36291;SDS011;22327;51.208;6.418;2024-02-04T16:15:43;2.15;;;1.73;;
36291;SDS011;22327;51.208;6.418;2024-02-04T16:18:51;3.35;;;2.10;;
36291;SDS011;22327;51.208;6.418;2024-02-04T16:21:52;3.75;;;2.00;;
36291;SDS011;22327;51.208;6.418;2024-02-04T16:24:53;3.35;;;1.90;;
36291;SDS011;22327;51.208;6.418;2024-02-04T16:27:53;4.72;;;2.78;;
36291;SDS011;22327;51.208;6.418;2024-02-04T16:30:54;3.25;;;1.90;;
36291;SDS011;22327;51.208;6.418;2024-02-04T16:33:54;2.88;;;2.40;;
36291;SDS011;22327;51.208;6.418;2024-02-04T16:36:55;2.08;;;1.55;;
36291;SDS011;22327;51.208;6.418;2024-02-04T16:39:56;3.13;;;2.63;;
36291;SDS011;22327;51.208;6.418;2024-02-04T16:42:56;3.28;;;1.75;;
36291;SDS011;22327;51.208;6.418;2024-02-04T16:45:57;3.72;;;1.80;;
36291;SDS011;22327;51.208;6.418;2024-02-04T16:48:57;3.88;;;1.92;;
36291;SDS011;22327;51.208;6.418;2024-02-04T16:51:58;1.95;;;1.75;;
36291;SDS011;22327;51.208;6.418;2024-02-04T16:54:58;4.80;;;2.30;;
36291;SDS011;22327;51.208;6.418;2024-02-04T16:57:59;3.30;;;1.90;;
36291;SDS011;22327;51.208;6.418;2024-02-04T17:00:59;3.67;;;1.48;;
36291;SDS011;22327;51.208;6.418;2024-02-04T17:04:00;3.35;;;1.60;;
36291;SDS011;22327;51.208;6.418;2024-02-04T17:07:00;3.08;;;1.98;;
36291;SDS011;22327;51.208;6.418;2024-02-04T17:10:01;6.75;;;2.10;;
36291;SDS011;22327;51.208;6.418;2024-02-04T17:13:02;2.97;;;1.63;;
36291;SDS011;22327;51.208;6.418;2024-02-04T17:16:14;2.60;;;1.70;;
36291;SDS011;22327;51.208;6.418;2024-02-04T17:22:29;4.60;;;2.13;;
36291;SDS011;22327;51.208;6.418;2024-02-04T17:25:33;4.38;;;2.58;;
36291;SDS011;22327;51.208;6.418;2024-02-04T17:28:38;5.45;;;2.55;;
36291;SDS011;22327;51.208;6.418;2024-02-04T17:31:38;4.78;;;2.30;;
36291;SDS011;22327;51.208;6.418;2024-02-04T17:34:40;4.53;;;2.30;;
36291;SDS011;22327;51.208;6.418;2024-02-04T17:37:40;7.07;;;2.15;;
36291;SDS011;22327;51.208;6.418;2024-02-04T17:40:42;2.97;;;2.58;;
36291;SDS011;22327;51.208;6.418;2024-02-04T17:43:43;5.65;;;2.47;;
36291;SDS011;22327;51.208;6.418;2024-02-04T17:46:43;4.85;;;2.58;;
36291;SDS011;22327;51.208;6.418;2024-02-04T17:49:46;6.15;;;3.53;;
36291;SDS011;22327;51.208;6.418;2024-02-04T17:52:47;6.90;;;3.05;;
36291;SDS011;22327;51.208;6.418;2024-02-04T17:55:47;6.60;;;3.05;;
36291;SDS011;22327;51.208;6.418;2024-02-04T17:58:48;6.35;;;3.20;;
36291;SDS011;22327;51.208;6.418;2024-02-04T18:01:49;6.85;;;3.40;;
36291;SDS011;22327;51.208;6.418;2024-02-04T18:04:49;4.85;;;2.70;;
36291;SDS011;22327;51.208;6.418;2024-02-04T18:07:54;5.80;;;2.42;;
36291;SDS011;22327;51.208;6.418;2024-02-04T18:10:54;6.10;;;2.63;;